createdAt,value
2022-11-17T00:01:39.888Z,9.15
2022-11-17T00:04:06.969Z,4.55
2022-11-17T00:06:34.027Z,11.70
2022-11-17T00:09:01.393Z,6.40
2022-11-17T00:11:28.543Z,7.80
2022-11-17T00:13:55.694Z,5.60
2022-11-17T00:16:22.935Z,2.78
2022-11-17T00:18:50.181Z,3.57
2022-11-17T00:21:18.706Z,2.57
2022-11-17T00:23:45.824Z,4.50
2022-11-17T00:26:18.210Z,2.95
2022-11-17T00:28:45.410Z,3.97
2022-11-17T00:31:14.072Z,4.75
2022-11-17T00:33:41.134Z,3.72
2022-11-17T00:36:08.489Z,5.07
2022-11-17T00:38:35.573Z,3.58
2022-11-17T00:41:02.647Z,5.78
2022-11-17T00:43:29.878Z,5.43
2022-11-17T00:45:56.966Z,7.00
2022-11-17T00:48:24.206Z,5.68
2022-11-17T00:50:51.294Z,5.53
2022-11-17T00:53:18.702Z,6.47
2022-11-17T00:55:45.822Z,8.35
2022-11-17T00:58:13.031Z,5.83
2022-11-17T01:00:40.087Z,6.25
2022-11-17T01:03:07.214Z,7.70
2022-11-17T01:05:34.596Z,5.90
2022-11-17T01:08:01.854Z,7.55
2022-11-17T01:10:28.914Z,6.30
2022-11-17T01:12:56.137Z,6.13
2022-11-17T01:15:23.187Z,4.88
2022-11-17T01:17:50.249Z,5.50
2022-11-17T01:20:17.556Z,4.82
2022-11-17T01:22:44.561Z,8.03
2022-11-17T01:25:11.740Z,6.68
2022-11-17T01:27:38.788Z,6.20
2022-11-17T01:30:06.394Z,4.82
2022-11-17T01:32:33.532Z,5.57
2022-11-17T01:35:00.599Z,5.72
2022-11-17T01:37:27.683Z,5.03
2022-11-17T01:39:54.858Z,7.38
2022-11-17T01:42:24.524Z,4.82
2022-11-17T01:45:00.724Z,7.07
2022-11-17T01:47:31.449Z,4.30
2022-11-17T01:50:10.474Z,4.68
2022-11-17T01:52:38.842Z,5.75
2022-11-17T01:57:39.717Z,5.93
2022-11-17T02:00:09.056Z,3.97
2022-11-17T02:02:39.116Z,4.88
2022-11-17T02:05:10.356Z,5.43
2022-11-17T02:07:40.616Z,12.30
2022-11-17T02:10:08.159Z,6.32
2022-11-17T02:12:36.760Z,5.80
2022-11-17T02:15:04.716Z,5.15
2022-11-17T02:17:39.130Z,6.10
2022-11-17T02:20:17.905Z,7.13
2022-11-17T02:23:06.945Z,5.07
2022-11-17T02:26:02.130Z,4.82
2022-11-17T02:28:42.114Z,5.65
2022-11-17T02:31:27.886Z,5.15
2022-11-17T02:34:14.946Z,4.43
2022-11-17T02:36:48.682Z,4.70
2022-11-17T02:39:24.412Z,5.38
2022-11-17T02:42:03.643Z,3.72
2022-11-17T02:44:56.218Z,4.63
2022-11-17T02:47:29.919Z,6.10
2022-11-17T02:50:05.580Z,6.57
2022-11-17T02:52:33.390Z,5.68
2022-11-17T02:55:01.632Z,6.47
2022-11-17T02:57:34.339Z,6.70
2022-11-17T03:00:13.341Z,5.22
2022-11-17T03:02:59.256Z,6.38
2022-11-17T03:05:43.539Z,5.32
2022-11-17T03:08:32.931Z,4.30
2022-11-17T03:11:03.540Z,3.90
2022-11-17T03:13:48.965Z,4.78
2022-11-17T03:16:37.362Z,4.80
2022-11-17T03:19:24.988Z,4.63
2022-11-17T03:22:06.872Z,4.95
2022-11-17T03:24:39.669Z,4.10
2022-11-17T03:27:12.644Z,5.72
2022-11-17T03:29:44.537Z,6.78
2022-11-17T03:32:14.569Z,5.80
2022-11-17T03:34:55.323Z,6.03
2022-11-17T03:37:26.620Z,5.72
2022-11-17T03:39:58.812Z,4.80
2022-11-17T03:42:29.541Z,5.55
2022-11-17T03:45:07.251Z,4.10
2022-11-17T03:47:35.621Z,4.95
2022-11-17T03:50:27.527Z,3.47
2022-11-17T03:52:54.808Z,4.13
2022-11-17T03:55:28.811Z,3.40
2022-11-17T03:58:05.593Z,6.55
2022-11-17T04:00:34.907Z,3.78
2022-11-17T04:03:02.077Z,8.27
2022-11-17T04:05:29.219Z,4.45
2022-11-17T04:07:56.273Z,4.93
2022-11-17T04:10:25.083Z,3.88
2022-11-17T04:12:53.348Z,3.88
2022-11-17T04:15:20.633Z,4.82
2022-11-17T04:17:47.920Z,3.97
2022-11-17T04:20:15.330Z,4.45
2022-11-17T04:22:42.570Z,5.20
2022-11-17T04:25:09.721Z,4.20
2022-11-17T04:27:36.777Z,3.92
2022-11-17T04:30:04.638Z,4.97
2022-11-17T04:32:31.706Z,3.83
2022-11-17T04:34:58.753Z,4.05
2022-11-17T04:37:25.845Z,3.30
2022-11-17T04:39:53.125Z,3.35
2022-11-17T04:42:20.262Z,3.77
2022-11-17T04:44:47.334Z,3.85
2022-11-17T04:47:14.842Z,4.53
2022-11-17T04:49:41.889Z,3.83
2022-11-17T04:52:08.994Z,5.43
2022-11-17T04:54:36.136Z,4.50
2022-11-17T04:57:03.363Z,4.18
2022-11-17T04:59:30.582Z,3.33
2022-11-17T05:02:02.504Z,4.78
2022-11-17T05:04:32.602Z,3.70
2022-11-17T05:06:59.960Z,3.40
2022-11-17T05:09:27.096Z,4.23
2022-11-17T05:11:54.408Z,6.47
2022-11-17T05:14:23.489Z,5.97
2022-11-17T05:16:51.013Z,3.55
2022-11-17T05:19:23.449Z,3.67
2022-11-17T05:21:51.065Z,3.97
2022-11-17T05:24:18.795Z,3.75
2022-11-17T05:26:47.581Z,3.55
2022-11-17T05:29:17.333Z,5.25
2022-11-17T05:31:45.155Z,4.18
2022-11-17T05:34:15.028Z,3.05
2022-11-17T05:36:42.178Z,4.35
2022-11-17T05:39:09.636Z,3.42
2022-11-17T05:41:36.692Z,3.03
2022-11-17T05:44:04.621Z,4.10
2022-11-17T05:46:31.962Z,4.45
2022-11-17T05:48:59.147Z,4.82
2022-11-17T05:51:26.342Z,4.18
2022-11-17T05:53:53.424Z,2.85
2022-11-17T05:56:26.324Z,3.28
2022-11-17T05:58:58.702Z,4.22
2022-11-17T06:01:27.282Z,3.33
2022-11-17T06:03:58.302Z,3.80
2022-11-17T06:06:25.648Z,5.78
2022-11-17T06:08:52.735Z,4.50
2022-11-17T06:11:19.892Z,4.47
2022-11-17T06:13:46.940Z,2.95
2022-11-17T06:16:18.158Z,4.03
2022-11-17T06:18:53.527Z,3.60
2022-11-17T06:21:21.583Z,4.03
2022-11-17T06:23:49.861Z,4.45
2022-11-17T06:26:17.157Z,2.63
2022-11-17T06:28:47.399Z,2.77
2022-11-17T06:31:15.513Z,3.03
2022-11-17T06:33:43.222Z,3.90
2022-11-17T06:36:10.819Z,2.05
2022-11-17T06:38:37.913Z,5.38
2022-11-17T06:41:10.565Z,3.13
2022-11-17T06:43:39.135Z,2.50
2022-11-17T06:46:06.484Z,3.05
2022-11-17T06:48:33.787Z,3.03
2022-11-17T06:51:03.142Z,3.17
2022-11-17T06:53:30.977Z,2.08
2022-11-17T06:55:58.227Z,2.90
2022-11-17T06:58:25.264Z,2.88
2022-11-17T07:00:52.378Z,3.83
2022-11-17T07:03:19.599Z,1.98
2022-11-17T07:05:46.750Z,2.13
2022-11-17T07:08:13.805Z,2.88
2022-11-17T07:10:44.983Z,2.25
2022-11-17T07:13:15.332Z,2.17
2022-11-17T07:15:42.460Z,3.67
2022-11-17T07:18:09.522Z,4.32
2022-11-17T07:20:36.672Z,4.25
2022-11-17T07:23:03.830Z,3.22
2022-11-17T07:25:30.932Z,2.53
2022-11-17T07:27:59.938Z,5.35
2022-11-17T07:30:27.617Z,2.83
2022-11-17T07:32:55.144Z,1.83
2022-11-17T07:35:22.281Z,4.07
2022-11-17T07:37:49.472Z,3.30
2022-11-17T07:40:16.711Z,1.83
2022-11-17T07:42:48.863Z,2.13
2022-11-17T07:45:17.396Z,2.45
2022-11-17T07:47:44.696Z,1.77
2022-11-17T07:50:11.761Z,3.08
2022-11-17T07:52:41.584Z,2.47
2022-11-17T07:55:09.122Z,4.05
2022-11-17T07:57:36.442Z,3.47
2022-11-17T08:00:04.104Z,3.57
2022-11-17T08:02:39.585Z,4.30
2022-11-17T08:05:07.200Z,2.75
2022-11-17T08:07:34.427Z,2.55
2022-11-17T08:10:01.831Z,2.65
2022-11-17T08:12:28.921Z,3.37
2022-11-17T08:14:56.127Z,4.43
2022-11-17T08:17:23.241Z,3.70
2022-11-17T08:19:50.322Z,4.20
2022-11-17T08:22:17.500Z,2.72
2022-11-17T08:24:44.553Z,3.00
2022-11-17T08:27:11.649Z,3.22
2022-11-17T08:29:38.863Z,66.03
2022-11-17T08:32:06.253Z,32.67
2022-11-17T08:34:33.386Z,18.63
2022-11-17T08:37:00.805Z,16.13
2022-11-17T08:39:27.904Z,16.33
2022-11-17T08:41:55.021Z,14.88
2022-11-17T08:44:22.225Z,17.00
2022-11-17T08:46:49.407Z,15.02
2022-11-17T08:49:16.505Z,10.45
2022-11-17T08:51:43.671Z,10.65
2022-11-17T08:54:12.054Z,9.50
2022-11-17T08:56:39.448Z,8.45
2022-11-17T08:59:06.595Z,5.40
2022-11-17T09:01:33.807Z,7.90
2022-11-17T09:04:00.883Z,5.20
2022-11-17T09:06:28.204Z,3.88
2022-11-17T09:08:55.548Z,3.23
2022-11-17T09:11:22.772Z,3.73
2022-11-17T09:13:50.047Z,5.10
2022-11-17T09:16:17.274Z,4.87
2022-11-17T09:18:44.881Z,3.35
2022-11-17T09:21:15.810Z,2.80
2022-11-17T09:23:43.199Z,2.33
2022-11-17T09:26:12.916Z,2.45
2022-11-17T09:28:40.508Z,2.67
2022-11-17T09:31:16.763Z,3.20
2022-11-17T09:33:44.839Z,5.80
2022-11-17T09:41:16.338Z,8.88
2022-11-17T09:43:54.465Z,4.03
2022-11-17T09:46:30.009Z,3.00
2022-11-17T09:49:39.839Z,2.65
2022-11-17T09:52:25.740Z,1.63
2022-11-17T09:54:57.185Z,2.40
2022-11-17T09:57:33.264Z,2.67
2022-11-17T10:00:05.641Z,2.08
2022-11-17T10:02:33.790Z,3.30
2022-11-17T10:07:31.552Z,3.42
2022-11-17T10:10:01.100Z,2.05
2022-11-17T10:12:39.154Z,3.58
2022-11-17T10:15:21.666Z,1.20
2022-11-17T10:17:50.397Z,2.40
2022-11-17T10:20:18.361Z,3.25
2022-11-17T10:22:47.035Z,3.08
2022-11-17T10:25:36.690Z,1.95
2022-11-17T10:28:06.245Z,5.72
2022-11-17T10:30:34.174Z,2.78
2022-11-17T10:33:02.455Z,3.25
2022-11-17T10:35:35.023Z,1.88
2022-11-17T10:38:06.155Z,2.78
2022-11-17T10:40:49.703Z,1.80
2022-11-17T10:43:26.601Z,2.60
2022-11-17T10:45:56.958Z,2.33
2022-11-17T10:48:26.824Z,1.73
2022-11-17T10:51:15.881Z,2.33
2022-11-17T10:53:46.099Z,3.42
2022-11-17T10:56:17.062Z,1.88
2022-11-17T10:59:27.500Z,2.75
2022-11-17T11:01:54.689Z,3.25
2022-11-17T11:04:38.733Z,3.63
2022-11-17T11:07:21.076Z,3.28
2022-11-17T11:10:00.513Z,1.77
2022-11-17T11:12:44.473Z,2.45
2022-11-17T11:15:19.130Z,2.33
2022-11-17T11:17:46.415Z,3.40
2022-11-17T11:20:16.134Z,2.37
2022-11-17T11:23:20.799Z,3.03
2022-11-17T11:25:56.057Z,5.10
2022-11-17T11:28:54.552Z,4.30
2022-11-17T11:31:40.992Z,2.70
2022-11-17T11:34:35.940Z,4.57
2022-11-17T11:37:10.053Z,2.25
2022-11-17T11:40:24.385Z,2.70
2022-11-17T11:42:58.789Z,2.95
2022-11-17T11:45:47.316Z,2.33
2022-11-17T11:48:28.056Z,1.88
2022-11-17T11:50:59.599Z,3.35
2022-11-17T11:53:49.661Z,2.15
2022-11-17T11:56:27.774Z,2.00
2022-11-17T11:59:02.436Z,3.17
2022-11-17T12:01:43.229Z,1.10
2022-11-17T12:04:22.147Z,3.15
2022-11-17T12:07:10.402Z,2.25
2022-11-17T12:10:01.708Z,2.05
2022-11-17T12:12:32.594Z,2.38
2022-11-17T12:15:08.193Z,1.95
2022-11-17T12:17:36.013Z,2.38
2022-11-17T12:20:10.667Z,1.95
2022-11-17T12:22:58.129Z,1.38
2022-11-17T12:25:31.278Z,1.90
2022-11-17T12:27:58.552Z,1.27
2022-11-17T12:30:34.862Z,1.53
2022-11-17T12:33:04.961Z,2.55
2022-11-17T12:35:36.658Z,1.55
2022-11-17T12:38:16.044Z,1.40
2022-11-17T12:40:46.069Z,1.45
2022-11-17T12:43:16.069Z,1.80
2022-11-17T12:45:58.278Z,3.03
2022-11-17T12:48:35.004Z,1.02
2022-11-17T12:51:47.593Z,1.23
2022-11-17T12:54:38.236Z,1.60
2022-11-17T12:57:13.784Z,1.83
2022-11-17T13:00:00.857Z,0.82
2022-11-17T13:02:51.211Z,1.43
2022-11-17T13:05:21.363Z,1.88
2022-11-17T13:07:48.828Z,1.90
2022-11-17T13:10:24.952Z,1.45
2022-11-17T13:13:09.576Z,1.88
2022-11-17T13:15:36.937Z,2.20
2022-11-17T13:18:10.561Z,3.13
2022-11-17T13:20:38.798Z,1.83
2022-11-17T13:23:23.876Z,2.75
2022-11-17T13:25:52.025Z,3.83
2022-11-17T13:28:27.368Z,0.80
2022-11-17T13:30:54.889Z,2.50
2022-11-17T13:33:23.817Z,3.60
2022-11-17T13:36:08.895Z,0.98
2022-11-17T13:38:36.105Z,0.75
2022-11-17T13:41:05.218Z,4.00
2022-11-17T13:43:39.357Z,1.92
2022-11-17T13:46:06.621Z,5.47
2022-11-17T13:48:44.457Z,2.45
2022-11-17T13:51:25.902Z,1.55
2022-11-17T13:54:16.900Z,1.25
2022-11-17T13:56:47.264Z,1.35
2022-11-17T13:59:25.133Z,1.92
2022-11-17T14:04:37.743Z,1.77
2022-11-17T14:07:04.873Z,1.70
2022-11-17T14:09:32.742Z,3.47
2022-11-17T14:12:00.838Z,1.65
2022-11-17T14:14:36.193Z,5.07
2022-11-17T14:17:18.825Z,16.95
2022-11-17T14:19:46.875Z,13.25
2022-11-17T14:22:21.398Z,9.55
2022-11-17T14:24:51.144Z,18.75
2022-11-17T14:27:26.651Z,35.35
2022-11-17T14:29:53.800Z,32.80
2022-11-17T14:32:20.950Z,45.47
2022-11-17T14:34:48.081Z,42.50
2022-11-17T14:37:15.400Z,27.90
2022-11-17T14:39:42.465Z,18.47
2022-11-17T14:42:10.972Z,10.07
2022-11-17T14:44:38.226Z,6.47
2022-11-17T14:47:05.348Z,3.30
2022-11-17T14:49:32.449Z,4.40
2022-11-17T14:51:59.566Z,2.65
2022-11-17T14:54:26.787Z,2.15
2022-11-17T14:56:53.962Z,1.73
2022-11-17T14:59:21.104Z,1.52
2022-11-17T15:01:48.288Z,1.37
2022-11-17T15:07:28.467Z,2.80
2022-11-17T15:09:55.709Z,5.13
2022-11-17T15:12:22.802Z,0.60
2022-11-17T15:14:50.424Z,1.73
2022-11-17T15:17:17.482Z,2.00
2022-11-17T15:19:44.939Z,1.65
2022-11-17T15:22:12.171Z,7.90
2022-11-17T15:24:39.248Z,12.37
2022-11-17T15:27:06.662Z,7.22
2022-11-17T15:29:33.883Z,7.50
2022-11-17T15:32:01.033Z,3.97
2022-11-17T15:34:29.001Z,1.98
2022-11-17T15:36:56.091Z,3.42
2022-11-17T15:39:23.404Z,1.23
2022-11-17T15:41:50.562Z,2.93
2022-11-17T15:44:18.268Z,2.35
2022-11-17T15:46:47.586Z,3.05
2022-11-17T15:49:15.523Z,1.95
2022-11-17T15:51:42.806Z,2.65
2022-11-17T15:54:18.484Z,3.10
2022-11-17T15:56:47.061Z,2.33
2022-11-17T15:59:14.617Z,3.03
2022-11-17T16:01:42.056Z,2.55
2022-11-17T16:04:11.950Z,2.97
2022-11-17T16:06:40.959Z,2.65
2022-11-17T16:09:09.644Z,4.03
2022-11-17T16:11:37.074Z,5.40
2022-11-17T16:14:05.237Z,4.78
2022-11-17T16:16:37.733Z,3.83
2022-11-17T16:19:05.656Z,2.75
2022-11-17T16:21:33.200Z,5.50
2022-11-17T16:24:00.436Z,2.90
2022-11-17T16:26:28.997Z,4.17
2022-11-17T16:28:58.109Z,2.97
2022-11-17T16:31:27.326Z,3.85
2022-11-17T16:34:02.868Z,4.93
2022-11-17T16:36:36.643Z,4.65
2022-11-17T16:39:06.982Z,5.47
2022-11-17T16:41:36.567Z,4.97
2022-11-17T16:44:08.614Z,5.35
2022-11-17T16:46:35.894Z,2.72
2022-11-17T16:49:05.832Z,4.53
2022-11-17T16:51:34.251Z,4.13
2022-11-17T16:54:07.023Z,4.78
2022-11-17T16:56:34.625Z,5.03
2022-11-17T16:59:02.663Z,4.72
2022-11-17T17:01:31.738Z,5.32
2022-11-17T17:04:07.770Z,3.97
2022-11-17T17:06:35.854Z,5.72
2022-11-17T17:09:07.704Z,4.18
2022-11-17T17:11:36.832Z,4.07
2022-11-17T17:14:06.687Z,4.30
2022-11-17T17:16:35.302Z,4.80
2022-11-17T17:19:04.454Z,7.65
2022-11-17T17:21:32.388Z,4.60
2022-11-17T17:23:59.453Z,9.23
2022-11-17T17:26:29.021Z,6.18
2022-11-17T17:28:57.952Z,6.35
2022-11-17T17:31:28.771Z,7.28
2022-11-17T17:33:56.139Z,11.52
2022-11-17T17:36:25.054Z,10.82
2022-11-17T17:38:56.238Z,8.05
2022-11-17T17:41:28.337Z,10.88
2022-11-17T17:43:58.306Z,4.72
2022-11-17T17:46:26.480Z,5.25
2022-11-17T17:51:22.721Z,4.18
2022-11-17T17:53:49.936Z,5.47
2022-11-17T17:56:19.173Z,7.10
2022-11-17T17:58:46.797Z,4.85
2022-11-17T18:01:22.762Z,5.53
2022-11-17T18:03:51.678Z,4.13
2022-11-17T18:06:20.573Z,6.63
2022-11-17T18:08:48.778Z,5.90
2022-11-17T18:11:18.337Z,5.50
2022-11-17T18:13:47.786Z,4.20
2022-11-17T18:16:20.282Z,5.63
2022-11-17T18:18:48.091Z,4.57
2022-11-17T18:21:17.749Z,7.10
2022-11-17T18:23:45.600Z,5.03
2022-11-17T18:26:12.738Z,6.75
2022-11-17T18:28:39.912Z,11.82
2022-11-17T18:31:07.752Z,3.15
2022-11-17T18:33:35.559Z,6.20
2022-11-17T18:36:05.781Z,5.43
2022-11-17T18:38:35.108Z,8.82
2022-11-17T18:41:09.386Z,6.43
2022-11-17T18:43:36.970Z,6.80
2022-11-17T18:46:33.768Z,2.53
2022-11-17T18:49:01.068Z,6.10
2022-11-17T18:51:30.844Z,4.87
2022-11-17T18:53:59.521Z,7.22
2022-11-17T18:56:37.586Z,3.33
2022-11-17T18:59:06.743Z,3.15
2022-11-17T19:01:34.152Z,4.40
2022-11-17T19:04:01.384Z,3.67
2022-11-17T19:06:29.273Z,3.88
2022-11-17T19:08:58.884Z,3.15
2022-11-17T19:11:27.483Z,2.75
2022-11-17T19:13:54.592Z,3.40
2022-11-17T19:16:24.171Z,2.58
2022-11-17T19:18:54.106Z,5.65
2022-11-17T19:21:23.686Z,3.80
2022-11-17T19:23:52.163Z,5.47
2022-11-17T19:26:21.942Z,3.50
2022-11-17T19:28:49.628Z,5.10
2022-11-17T19:31:20.043Z,5.05
2022-11-17T19:33:49.110Z,5.00
2022-11-17T19:36:19.535Z,8.63
2022-11-17T19:38:51.194Z,9.18
2022-11-17T19:41:27.015Z,8.80
2022-11-17T19:43:55.789Z,6.57
2022-11-17T19:46:24.216Z,7.40
2022-11-17T19:48:51.982Z,8.07
2022-11-17T19:51:30.600Z,5.40
2022-11-17T19:54:01.112Z,6.03
2022-11-17T19:56:28.881Z,10.85
2022-11-17T19:58:56.096Z,16.75
2022-11-17T20:01:25.488Z,16.30
2022-11-17T20:03:53.196Z,18.92
2022-11-17T20:06:22.777Z,12.27
2022-11-17T20:08:50.212Z,10.50
2022-11-17T20:11:20.005Z,7.85
2022-11-17T20:13:47.832Z,8.15
2022-11-17T20:16:17.666Z,11.50
2022-11-17T20:18:48.437Z,8.48
2022-11-17T20:21:15.523Z,11.77
2022-11-17T20:23:42.923Z,7.22
2022-11-17T20:26:18.850Z,9.07
2022-11-17T20:28:47.207Z,6.85
2022-11-17T20:31:23.301Z,8.30
2022-11-17T20:33:51.149Z,6.55
2022-11-17T20:36:20.584Z,6.88
2022-11-17T20:38:51.920Z,6.70
2022-11-17T20:41:19.962Z,7.38
2022-11-17T20:43:48.281Z,7.35
2022-11-17T20:46:15.545Z,5.75
2022-11-17T20:48:42.775Z,5.77
2022-11-17T20:51:12.183Z,8.50
2022-11-17T20:53:39.905Z,5.80
2022-11-17T20:56:09.426Z,5.80
2022-11-17T20:58:36.680Z,7.10
2022-11-17T21:01:30.400Z,6.68
2022-11-17T21:03:57.783Z,7.55
2022-11-17T21:06:25.231Z,4.45
2022-11-17T21:08:52.818Z,6.37
2022-11-17T21:11:22.228Z,6.70
2022-11-17T21:13:49.426Z,9.18
2022-11-17T21:16:16.465Z,7.47
2022-11-17T21:18:48.155Z,4.72
2022-11-17T21:21:15.906Z,6.72
2022-11-17T21:23:43.798Z,6.93
2022-11-17T21:26:13.475Z,6.03
2022-11-17T21:28:40.864Z,4.90
2022-11-17T21:31:11.909Z,6.05
2022-11-17T21:33:39.885Z,6.15
2022-11-17T21:36:12.397Z,4.13
2022-11-17T21:38:40.006Z,5.68
2022-11-17T21:41:27.509Z,3.55
2022-11-17T21:43:58.067Z,3.90
2022-11-17T21:46:27.037Z,4.82
2022-11-17T21:48:56.148Z,4.47
2022-11-17T21:51:28.743Z,6.00
2022-11-17T21:53:57.577Z,3.88
2022-11-17T21:56:26.049Z,6.95
2022-11-17T21:58:57.331Z,3.42
2022-11-17T22:01:25.151Z,2.45
2022-11-17T22:03:52.510Z,4.63
2022-11-17T22:06:21.478Z,3.80
2022-11-17T22:08:49.000Z,2.00
2022-11-17T22:11:18.806Z,1.55
2022-11-17T22:13:46.014Z,1.98
2022-11-17T22:16:13.809Z,2.47
2022-11-17T22:18:41.363Z,2.83
2022-11-17T22:21:08.751Z,0.80
2022-11-17T22:23:35.926Z,1.90
2022-11-17T22:26:05.436Z,2.97
2022-11-17T22:28:32.792Z,4.07
2022-11-17T22:31:04.146Z,2.63
2022-11-17T22:33:31.229Z,1.55
2022-11-17T22:36:02.545Z,3.38
2022-11-17T22:38:29.669Z,3.65
2022-11-17T22:41:04.619Z,3.00
2022-11-17T22:43:32.022Z,2.40
2022-11-17T22:46:03.956Z,1.77
2022-11-17T22:48:31.904Z,3.33
2022-11-17T22:51:00.055Z,5.80
2022-11-17T22:55:54.633Z,2.00
2022-11-17T22:58:21.752Z,2.63
2022-11-17T23:00:48.901Z,3.05
2022-11-17T23:03:15.986Z,4.53
2022-11-17T23:05:43.128Z,3.42
2022-11-17T23:08:10.322Z,3.90
2022-11-17T23:10:37.923Z,3.47
2022-11-17T23:13:05.108Z,1.38
2022-11-17T23:15:32.251Z,3.17
2022-11-17T23:17:59.517Z,6.22
2022-11-17T23:20:26.644Z,3.33
2022-11-17T23:22:53.720Z,3.88
2022-11-17T23:25:21.389Z,2.60
2022-11-17T23:27:48.489Z,2.92
2022-11-17T23:30:16.043Z,2.33
2022-11-17T23:32:43.164Z,2.38
2022-11-17T23:35:10.437Z,5.05
2022-11-17T23:37:37.592Z,1.20
2022-11-17T23:40:05.096Z,3.47
2022-11-17T23:42:32.818Z,5.20
2022-11-17T23:45:00.572Z,5.05
2022-11-17T23:47:27.717Z,2.65
2022-11-17T23:49:54.760Z,3.65
2022-11-17T23:52:21.857Z,7.72
2022-11-17T23:54:48.966Z,1.92
2022-11-17T23:57:16.222Z,2.15
2022-11-17T23:59:43.332Z,3.97
